• Join FlightAware (Why Join?)
  • Login
  • US Flag GB Flag 
10:10 EDT


 

Airport Tracker/Info


-or-


 

Live Flight TrackerFlight Track Log ✈ SWA253 ✈ 08-Apr-2013 ✈ KOAK - KBUR

Flight Track Log - Related Links

Times and Time Zones

All times are in EDT time to prevent confusion due to time zone crossing. See the SWA253 flight status page for this flight to view local times or setup timezone preferences in your user account.

Time Position Orientation Groundspeed Altitude Reporting Facility
EDT Latitude Longitude Course Direction KTS MPH feet Rate Location/Type
23:33 37.7286 -122.2569 150° Southeast 150 173 2,100  Level Oakland Center
23:34 37.7597 -122.3158 304° West 201 231 3,900 2,400 Climbing Oakland Center
23:35 37.7300 -122.3953 245° Southwest 272 313 7,000 3,060 Climbing Oakland Center
23:36 37.6544 -122.3522 156° South 302 348 10,200 2,880 Climbing Oakland Center
23:37 37.5775 -122.2747 141° Southeast 348 400 12,900 3,240 Climbing Oakland Center
23:38 37.3092 -122.3470 150° Southeast  Level FlightAware Approximate
23:38 37.4733 -122.1700 141° Southeast 393 452 16,900  Level Oakland Center
23:39 37.3778 -122.0742 141° Southeast 429 494 19,900 2,880 Climbing Oakland Center
23:40 37.2803 -121.9764 141° Southeast 445 512 22,800 2,460 Climbing Oakland Center
23:41 37.1753 -121.8725 142° Southeast 473 544 25,000 1,080 Climbing Oakland Center
23:42 37.0689 -121.7642 141° Southeast 488 562 25,000  Level Oakland Center
23:43 36.9553 -121.6519 142° Southeast 515 593 25,000  Level Oakland Center
23:44 36.8411 -121.5425 142° Southeast 518 596 25,000  Level Oakland Center
23:45 36.7242 -121.4244 141° Southeast 518 596 25,000  Level Oakland Center
23:46 36.6075 -121.3117 142° Southeast 539 620 25,000  Level Oakland Center
23:47 36.4872 -121.1942 142° Southeast 548 631 25,000  Level Oakland Center
23:48 36.3681 -121.0756 141° Southeast 549 632 25,000 60 Level Oakland Center
23:49 36.2481 -120.9603 142° Southeast 549 632 25,200 1,080 Climbing Oakland Center
23:50 36.1283 -120.8450 142° Southeast 546 628 27,200 840 Climbing Oakland Center
23:51 36.0067 -120.7275 142° Southeast 553 636 27,000 -120 Descending Oakland Center
23:52 35.8867 -120.6122 142° Southeast 549 632 27,000  Level Oakland Center
23:53 35.7650 -120.4986 143° Southeast 548 631 27,000  Level Oakland Center
23:54 35.6439 -120.3836 142° Southeast 547 629 27,000  Level Oakland Center
23:55 35.5203 -120.2678 143° Southeast 551 634 27,000  Level Oakland Center
23:56 35.3950 -120.1475 142° Southeast 558 642 27,000  Level Oakland Center
23:57 35.2694 -120.0294 142° Southeast 561 646 27,000 -840 Level Oakland Center
23:58 35.1456 -119.9144 143° Southeast 557 641 25,400 -1,500 Descending Oakland Center
23:59 35.0331 -119.7847 137° Southeast 557 641 24,000 -1,020 Descending Oakland Center
00:00 34.9139 -119.6242 132° Southeast 532 612 23,400 -1,860 Descending Oakland Center
00:01 34.8214 -119.4978 132° Southeast 505 581 20,300 -2,880 Descending Los Angeles Center
00:02 34.7292 -119.3750 132° Southeast 493 567 17,600 -3,000 Descending Los Angeles Center
00:03 34.6417 -119.2564 132° Southeast 475 547 14,200 -2,880 Descending Los Angeles Center
00:04 34.5531 -119.1406 133° Southeast 446 513 11,800 -1,620 Descending Los Angeles Center
00:05 34.4786 -119.0431 133° Southeast 392 451 11,000 -840 Descending Los Angeles Center
00:06 34.4114 -118.9497 131° Southeast 359 413 10,100 -1,020 Descending Los Angeles Center
00:07 34.3536 -118.8628 129° Southeast 332 382 9,000 -1,380 Descending Los Angeles Center
00:08 34.2975 -118.7839 131° Southeast 306 352 7,300 -1,740 Descending Los Angeles Center
00:09 34.2494 -118.7006 125° Southeast 300 345 5,500 -1,500 Descending Los Angeles Center
00:10 34.2167 -118.6000 111° Southeast 278 320 4,400 -600 Descending Southern California TRACON
00:11 34.1833 -118.5333 121° Southeast 229 264 4,400 -540 Level Southern California TRACON
00:12 34.1667 -118.4667 107° East 168 193 3,400 -1,080 Descending Southern California TRACON
00:13 34.1667 -118.4167 90° East 150 173 2,200 -900 Descending Southern California TRACON
00:14 34.1667 -118.3667 90° East 138 159 1,600 -600 Descending Southern California TRACON
00:15 34.1903 -118.3478 33° Northeast 140 161 1,000 -540 Descending Los Angeles Center
00:17 34.2000 -118.3500 140° Southeast  Level FlightAware Approximate
00:24 34.2007 -118.3587 140° Southeast  Level Estimated